sensor_id;sensor_type;location;lat;lon;timestamp;P1;durP1;ratioP1;P2;durP2;ratioP2
10277;SDS011;5184;51.376;7.148;2024-01-07T00:02:00;22.90;;;12.33;;
10277;SDS011;5184;51.376;7.148;2024-01-07T00:04:27;19.73;;;11.70;;
10277;SDS011;5184;51.376;7.148;2024-01-07T00:06:53;23.77;;;13.73;;
10277;SDS011;5184;51.376;7.148;2024-01-07T00:09:20;23.27;;;13.20;;
10277;SDS011;5184;51.376;7.148;2024-01-07T00:11:47;23.80;;;13.67;;
10277;SDS011;5184;51.376;7.148;2024-01-07T00:14:15;24.50;;;13.50;;
10277;SDS011;5184;51.376;7.148;2024-01-07T00:16:41;25.23;;;14.17;;
10277;SDS011;5184;51.376;7.148;2024-01-07T00:19:09;24.27;;;13.70;;
10277;SDS011;5184;51.376;7.148;2024-01-07T00:21:36;21.63;;;13.10;;
10277;SDS011;5184;51.376;7.148;2024-01-07T00:24:03;25.80;;;13.43;;
10277;SDS011;5184;51.376;7.148;2024-01-07T00:26:30;23.27;;;13.20;;
10277;SDS011;5184;51.376;7.148;2024-01-07T00:28:58;21.93;;;13.30;;
10277;SDS011;5184;51.376;7.148;2024-01-07T00:31:25;21.43;;;13.47;;
10277;SDS011;5184;51.376;7.148;2024-01-07T00:33:52;22.57;;;11.53;;
10277;SDS011;5184;51.376;7.148;2024-01-07T00:36:19;18.27;;;10.63;;
10277;SDS011;5184;51.376;7.148;2024-01-07T00:38:45;20.43;;;11.93;;
10277;SDS011;5184;51.376;7.148;2024-01-07T00:41:12;19.47;;;12.40;;
10277;SDS011;5184;51.376;7.148;2024-01-07T00:43:40;18.93;;;11.80;;
10277;SDS011;5184;51.376;7.148;2024-01-07T00:46:07;19.33;;;11.77;;
10277;SDS011;5184;51.376;7.148;2024-01-07T00:48:33;19.90;;;12.53;;
10277;SDS011;5184;51.376;7.148;2024-01-07T00:51:00;17.70;;;11.93;;
10277;SDS011;5184;51.376;7.148;2024-01-07T00:53:27;21.20;;;12.60;;
10277;SDS011;5184;51.376;7.148;2024-01-07T00:55:54;19.37;;;11.43;;
10277;SDS011;5184;51.376;7.148;2024-01-07T00:58:21;19.93;;;11.77;;
10277;SDS011;5184;51.376;7.148;2024-01-07T01:00:49;17.33;;;11.40;;
10277;SDS011;5184;51.376;7.148;2024-01-07T01:03:15;17.63;;;10.53;;
10277;SDS011;5184;51.376;7.148;2024-01-07T01:05:42;17.37;;;10.97;;
10277;SDS011;5184;51.376;7.148;2024-01-07T01:08:08;16.37;;;10.50;;
10277;SDS011;5184;51.376;7.148;2024-01-07T01:10:35;17.50;;;11.33;;
10277;SDS011;5184;51.376;7.148;2024-01-07T01:13:02;21.57;;;12.80;;
10277;SDS011;5184;51.376;7.148;2024-01-07T01:15:28;18.87;;;11.90;;
10277;SDS011;5184;51.376;7.148;2024-01-07T01:17:55;18.10;;;11.73;;
10277;SDS011;5184;51.376;7.148;2024-01-07T01:20:21;19.60;;;12.10;;
10277;SDS011;5184;51.376;7.148;2024-01-07T01:22:49;19.27;;;12.40;;
10277;SDS011;5184;51.376;7.148;2024-01-07T01:25:16;21.40;;;12.73;;
10277;SDS011;5184;51.376;7.148;2024-01-07T01:27:43;21.93;;;13.00;;
10277;SDS011;5184;51.376;7.148;2024-01-07T01:30:10;22.37;;;13.10;;
10277;SDS011;5184;51.376;7.148;2024-01-07T01:32:36;20.27;;;12.53;;
10277;SDS011;5184;51.376;7.148;2024-01-07T01:35:04;21.03;;;12.87;;
10277;SDS011;5184;51.376;7.148;2024-01-07T01:37:31;21.40;;;13.73;;
10277;SDS011;5184;51.376;7.148;2024-01-07T01:39:58;24.87;;;14.23;;
10277;SDS011;5184;51.376;7.148;2024-01-07T01:42:25;25.80;;;14.23;;
10277;SDS011;5184;51.376;7.148;2024-01-07T01:44:52;23.50;;;13.53;;
10277;SDS011;5184;51.376;7.148;2024-01-07T01:47:18;22.60;;;13.10;;
10277;SDS011;5184;51.376;7.148;2024-01-07T01:49:45;23.53;;;13.97;;
10277;SDS011;5184;51.376;7.148;2024-01-07T01:52:12;22.60;;;14.03;;
10277;SDS011;5184;51.376;7.148;2024-01-07T01:54:40;23.60;;;14.23;;
10277;SDS011;5184;51.376;7.148;2024-01-07T01:57:07;25.03;;;14.57;;
10277;SDS011;5184;51.376;7.148;2024-01-07T01:59:33;25.63;;;14.07;;
10277;SDS011;5184;51.376;7.148;2024-01-07T02:02:01;22.10;;;13.77;;
10277;SDS011;5184;51.376;7.148;2024-01-07T02:04:28;20.20;;;12.10;;
10277;SDS011;5184;51.376;7.148;2024-01-07T02:06:55;22.67;;;11.83;;
10277;SDS011;5184;51.376;7.148;2024-01-07T02:09:22;21.97;;;11.63;;
10277;SDS011;5184;51.376;7.148;2024-01-07T02:14:29;19.37;;;12.53;;
10277;SDS011;5184;51.376;7.148;2024-01-07T02:16:55;25.83;;;14.07;;
10277;SDS011;5184;51.376;7.148;2024-01-07T02:19:22;26.23;;;14.17;;
10277;SDS011;5184;51.376;7.148;2024-01-07T02:21:50;25.93;;;15.40;;
10277;SDS011;5184;51.376;7.148;2024-01-07T02:24:16;27.40;;;15.23;;
10277;SDS011;5184;51.376;7.148;2024-01-07T02:26:43;27.70;;;15.47;;
10277;SDS011;5184;51.376;7.148;2024-01-07T02:29:10;23.63;;;15.00;;
10277;SDS011;5184;51.376;7.148;2024-01-07T02:31:36;22.80;;;13.23;;
10277;SDS011;5184;51.376;7.148;2024-01-07T02:34:03;24.73;;;13.93;;
10277;SDS011;5184;51.376;7.148;2024-01-07T02:36:30;21.77;;;13.43;;
10277;SDS011;5184;51.376;7.148;2024-01-07T02:38:56;21.17;;;12.73;;
10277;SDS011;5184;51.376;7.148;2024-01-07T02:41:23;21.43;;;12.90;;
10277;SDS011;5184;51.376;7.148;2024-01-07T02:43:49;21.40;;;11.90;;
10277;SDS011;5184;51.376;7.148;2024-01-07T02:46:16;21.20;;;12.30;;
10277;SDS011;5184;51.376;7.148;2024-01-07T02:48:43;21.63;;;12.50;;
10277;SDS011;5184;51.376;7.148;2024-01-07T02:51:11;22.17;;;13.00;;
10277;SDS011;5184;51.376;7.148;2024-01-07T02:53:38;23.43;;;13.73;;
10277;SDS011;5184;51.376;7.148;2024-01-07T02:56:06;24.17;;;13.33;;
10277;SDS011;5184;51.376;7.148;2024-01-07T02:58:32;24.83;;;14.43;;
10277;SDS011;5184;51.376;7.148;2024-01-07T03:01:00;21.53;;;13.93;;
10277;SDS011;5184;51.376;7.148;2024-01-07T03:03:28;25.03;;;15.37;;
10277;SDS011;5184;51.376;7.148;2024-01-07T03:05:55;28.50;;;17.40;;
10277;SDS011;5184;51.376;7.148;2024-01-07T03:08:22;29.33;;;17.73;;
10277;SDS011;5184;51.376;7.148;2024-01-07T03:10:49;32.30;;;18.60;;
10277;SDS011;5184;51.376;7.148;2024-01-07T03:13:17;33.03;;;17.70;;
10277;SDS011;5184;51.376;7.148;2024-01-07T03:15:44;28.70;;;17.77;;
10277;SDS011;5184;51.376;7.148;2024-01-07T03:18:11;29.13;;;17.23;;
10277;SDS011;5184;51.376;7.148;2024-01-07T03:20:38;30.73;;;17.77;;
10277;SDS011;5184;51.376;7.148;2024-01-07T03:23:05;31.67;;;17.60;;
10277;SDS011;5184;51.376;7.148;2024-01-07T03:25:31;30.23;;;18.70;;
10277;SDS011;5184;51.376;7.148;2024-01-07T03:27:58;34.17;;;18.70;;
10277;SDS011;5184;51.376;7.148;2024-01-07T03:30:25;32.37;;;18.93;;
10277;SDS011;5184;51.376;7.148;2024-01-07T03:32:52;37.83;;;21.27;;
10277;SDS011;5184;51.376;7.148;2024-01-07T03:35:19;35.17;;;20.97;;
10277;SDS011;5184;51.376;7.148;2024-01-07T03:37:45;33.60;;;19.50;;
10277;SDS011;5184;51.376;7.148;2024-01-07T03:40:12;31.40;;;19.10;;
10277;SDS011;5184;51.376;7.148;2024-01-07T03:42:38;34.87;;;19.43;;
10277;SDS011;5184;51.376;7.148;2024-01-07T03:45:06;29.30;;;18.27;;
10277;SDS011;5184;51.376;7.148;2024-01-07T03:47:32;36.00;;;20.03;;
10277;SDS011;5184;51.376;7.148;2024-01-07T03:49:59;31.97;;;18.40;;
10277;SDS011;5184;51.376;7.148;2024-01-07T03:52:26;33.87;;;20.43;;
10277;SDS011;5184;51.376;7.148;2024-01-07T03:54:52;34.80;;;20.27;;
10277;SDS011;5184;51.376;7.148;2024-01-07T03:57:19;36.47;;;20.73;;
10277;SDS011;5184;51.376;7.148;2024-01-07T03:59:46;35.97;;;20.30;;
10277;SDS011;5184;51.376;7.148;2024-01-07T04:02:12;33.37;;;19.57;;
10277;SDS011;5184;51.376;7.148;2024-01-07T04:04:39;31.67;;;19.17;;
10277;SDS011;5184;51.376;7.148;2024-01-07T04:07:06;29.80;;;18.83;;
10277;SDS011;5184;51.376;7.148;2024-01-07T04:09:33;34.50;;;20.97;;
10277;SDS011;5184;51.376;7.148;2024-01-07T04:11:59;35.77;;;21.47;;
10277;SDS011;5184;51.376;7.148;2024-01-07T04:14:27;31.90;;;19.97;;
10277;SDS011;5184;51.376;7.148;2024-01-07T04:16:54;31.73;;;18.37;;
10277;SDS011;5184;51.376;7.148;2024-01-07T04:19:21;31.37;;;18.70;;
10277;SDS011;5184;51.376;7.148;2024-01-07T04:21:48;27.73;;;17.20;;
10277;SDS011;5184;51.376;7.148;2024-01-07T04:24:15;29.23;;;17.83;;
10277;SDS011;5184;51.376;7.148;2024-01-07T04:26:41;25.23;;;16.47;;
10277;SDS011;5184;51.376;7.148;2024-01-07T04:29:08;27.47;;;17.27;;
10277;SDS011;5184;51.376;7.148;2024-01-07T04:31:36;27.50;;;17.47;;
10277;SDS011;5184;51.376;7.148;2024-01-07T04:34:02;26.37;;;17.73;;
10277;SDS011;5184;51.376;7.148;2024-01-07T04:36:30;27.27;;;17.53;;
10277;SDS011;5184;51.376;7.148;2024-01-07T04:38:56;25.63;;;17.33;;
10277;SDS011;5184;51.376;7.148;2024-01-07T04:41:23;27.03;;;16.70;;
10277;SDS011;5184;51.376;7.148;2024-01-07T04:43:50;26.33;;;16.47;;
10277;SDS011;5184;51.376;7.148;2024-01-07T04:46:17;27.63;;;17.40;;
10277;SDS011;5184;51.376;7.148;2024-01-07T04:48:44;24.83;;;16.63;;
10277;SDS011;5184;51.376;7.148;2024-01-07T04:51:10;25.77;;;16.10;;
10277;SDS011;5184;51.376;7.148;2024-01-07T04:53:38;28.33;;;17.37;;
10277;SDS011;5184;51.376;7.148;2024-01-07T04:56:05;28.57;;;17.50;;
10277;SDS011;5184;51.376;7.148;2024-01-07T04:58:32;29.27;;;17.90;;
10277;SDS011;5184;51.376;7.148;2024-01-07T05:00:59;26.60;;;17.03;;
10277;SDS011;5184;51.376;7.148;2024-01-07T05:03:26;25.00;;;16.17;;
10277;SDS011;5184;51.376;7.148;2024-01-07T05:05:52;26.20;;;16.40;;
10277;SDS011;5184;51.376;7.148;2024-01-07T05:08:19;30.80;;;18.13;;
10277;SDS011;5184;51.376;7.148;2024-01-07T05:10:46;28.70;;;15.93;;
10277;SDS011;5184;51.376;7.148;2024-01-07T05:13:12;30.23;;;18.30;;
10277;SDS011;5184;51.376;7.148;2024-01-07T05:15:39;26.20;;;16.77;;
10277;SDS011;5184;51.376;7.148;2024-01-07T05:18:07;31.33;;;17.47;;
10277;SDS011;5184;51.376;7.148;2024-01-07T05:20:33;31.57;;;19.33;;
10277;SDS011;5184;51.376;7.148;2024-01-07T05:23:00;34.83;;;19.37;;
10277;SDS011;5184;51.376;7.148;2024-01-07T05:25:27;33.33;;;18.77;;
10277;SDS011;5184;51.376;7.148;2024-01-07T05:27:54;31.17;;;18.70;;
10277;SDS011;5184;51.376;7.148;2024-01-07T05:30:21;33.03;;;18.53;;
10277;SDS011;5184;51.376;7.148;2024-01-07T05:32:49;29.63;;;17.13;;
10277;SDS011;5184;51.376;7.148;2024-01-07T05:35:15;24.70;;;15.93;;
10277;SDS011;5184;51.376;7.148;2024-01-07T05:37:42;28.63;;;16.57;;
10277;SDS011;5184;51.376;7.148;2024-01-07T05:40:09;29.00;;;15.83;;
10277;SDS011;5184;51.376;7.148;2024-01-07T05:42:36;23.97;;;15.47;;
10277;SDS011;5184;51.376;7.148;2024-01-07T05:45:03;26.90;;;15.57;;
10277;SDS011;5184;51.376;7.148;2024-01-07T05:50:16;26.80;;;19.67;;
10277;SDS011;5184;51.376;7.148;2024-01-07T05:52:43;26.57;;;16.47;;
10277;SDS011;5184;51.376;7.148;2024-01-07T05:55:10;22.80;;;14.30;;
10277;SDS011;5184;51.376;7.148;2024-01-07T05:57:37;22.00;;;14.70;;
10277;SDS011;5184;51.376;7.148;2024-01-07T06:00:04;22.43;;;14.17;;
10277;SDS011;5184;51.376;7.148;2024-01-07T06:02:31;24.60;;;14.43;;
10277;SDS011;5184;51.376;7.148;2024-01-07T06:04:58;22.77;;;14.20;;
10277;SDS011;5184;51.376;7.148;2024-01-07T06:07:24;24.00;;;14.30;;
10277;SDS011;5184;51.376;7.148;2024-01-07T06:09:51;20.23;;;14.37;;
10277;SDS011;5184;51.376;7.148;2024-01-07T06:12:17;22.93;;;14.67;;
10277;SDS011;5184;51.376;7.148;2024-01-07T06:14:44;21.93;;;14.10;;
10277;SDS011;5184;51.376;7.148;2024-01-07T06:17:10;24.50;;;15.40;;
10277;SDS011;5184;51.376;7.148;2024-01-07T06:19:39;26.50;;;15.37;;
10277;SDS011;5184;51.376;7.148;2024-01-07T06:22:05;26.97;;;16.17;;
10277;SDS011;5184;51.376;7.148;2024-01-07T06:24:33;25.80;;;16.23;;
10277;SDS011;5184;51.376;7.148;2024-01-07T06:27:01;26.63;;;16.90;;
10277;SDS011;5184;51.376;7.148;2024-01-07T06:29:28;25.37;;;15.30;;
10277;SDS011;5184;51.376;7.148;2024-01-07T06:31:55;29.23;;;17.40;;
10277;SDS011;5184;51.376;7.148;2024-01-07T06:34:21;25.33;;;16.20;;
10277;SDS011;5184;51.376;7.148;2024-01-07T06:36:48;25.60;;;16.20;;
10277;SDS011;5184;51.376;7.148;2024-01-07T06:39:15;28.93;;;16.57;;
10277;SDS011;5184;51.376;7.148;2024-01-07T06:41:43;24.50;;;16.13;;
10277;SDS011;5184;51.376;7.148;2024-01-07T06:44:10;26.80;;;16.10;;
10277;SDS011;5184;51.376;7.148;2024-01-07T06:46:36;29.37;;;17.73;;
10277;SDS011;5184;51.376;7.148;2024-01-07T06:49:03;30.67;;;17.27;;
10277;SDS011;5184;51.376;7.148;2024-01-07T06:51:30;29.13;;;17.03;;
10277;SDS011;5184;51.376;7.148;2024-01-07T06:53:57;30.27;;;17.67;;
10277;SDS011;5184;51.376;7.148;2024-01-07T06:56:24;30.90;;;18.63;;
10277;SDS011;5184;51.376;7.148;2024-01-07T06:58:50;32.83;;;18.47;;
10277;SDS011;5184;51.376;7.148;2024-01-07T07:01:20;29.37;;;17.33;;
10277;SDS011;5184;51.376;7.148;2024-01-07T07:03:46;26.70;;;16.50;;
10277;SDS011;5184;51.376;7.148;2024-01-07T07:06:13;33.63;;;19.27;;
10277;SDS011;5184;51.376;7.148;2024-01-07T07:08:40;28.77;;;17.87;;
10277;SDS011;5184;51.376;7.148;2024-01-07T07:11:06;33.23;;;18.90;;
10277;SDS011;5184;51.376;7.148;2024-01-07T07:13:33;29.63;;;18.83;;
10277;SDS011;5184;51.376;7.148;2024-01-07T07:15:59;31.40;;;18.67;;
10277;SDS011;5184;51.376;7.148;2024-01-07T07:18:26;28.57;;;17.27;;
10277;SDS011;5184;51.376;7.148;2024-01-07T07:20:53;30.20;;;18.37;;
10277;SDS011;5184;51.376;7.148;2024-01-07T07:23:20;30.03;;;17.43;;
10277;SDS011;5184;51.376;7.148;2024-01-07T07:25:47;32.30;;;19.20;;
10277;SDS011;5184;51.376;7.148;2024-01-07T07:28:14;31.63;;;18.53;;
10277;SDS011;5184;51.376;7.148;2024-01-07T07:30:41;34.87;;;19.80;;
10277;SDS011;5184;51.376;7.148;2024-01-07T07:33:08;30.53;;;19.47;;
10277;SDS011;5184;51.376;7.148;2024-01-07T07:35:35;32.07;;;18.13;;
10277;SDS011;5184;51.376;7.148;2024-01-07T07:38:01;31.97;;;18.73;;
10277;SDS011;5184;51.376;7.148;2024-01-07T07:40:28;26.93;;;16.77;;
10277;SDS011;5184;51.376;7.148;2024-01-07T07:42:55;28.57;;;17.43;;
10277;SDS011;5184;51.376;7.148;2024-01-07T07:45:22;26.13;;;16.50;;
10277;SDS011;5184;51.376;7.148;2024-01-07T07:47:48;25.90;;;17.13;;
10277;SDS011;5184;51.376;7.148;2024-01-07T07:50:16;27.10;;;17.33;;
10277;SDS011;5184;51.376;7.148;2024-01-07T07:52:42;27.23;;;17.17;;
10277;SDS011;5184;51.376;7.148;2024-01-07T07:55:10;23.83;;;16.00;;
10277;SDS011;5184;51.376;7.148;2024-01-07T07:57:37;24.57;;;15.80;;
10277;SDS011;5184;51.376;7.148;2024-01-07T08:00:06;24.13;;;16.47;;
10277;SDS011;5184;51.376;7.148;2024-01-07T08:02:33;24.33;;;15.03;;
10277;SDS011;5184;51.376;7.148;2024-01-07T08:04:59;21.90;;;14.67;;
10277;SDS011;5184;51.376;7.148;2024-01-07T08:07:26;23.33;;;15.17;;
10277;SDS011;5184;51.376;7.148;2024-01-07T08:09:53;19.13;;;12.73;;
10277;SDS011;5184;51.376;7.148;2024-01-07T08:12:20;19.00;;;12.47;;
10277;SDS011;5184;51.376;7.148;2024-01-07T08:14:47;17.27;;;11.43;;
10277;SDS011;5184;51.376;7.148;2024-01-07T08:17:14;16.37;;;11.53;;
10277;SDS011;5184;51.376;7.148;2024-01-07T08:19:41;17.70;;;11.47;;
10277;SDS011;5184;51.376;7.148;2024-01-07T08:22:07;16.07;;;12.00;;
10277;SDS011;5184;51.376;7.148;2024-01-07T08:24:34;17.03;;;11.57;;
10277;SDS011;5184;51.376;7.148;2024-01-07T08:27:01;17.23;;;11.93;;
10277;SDS011;5184;51.376;7.148;2024-01-07T08:29:27;14.40;;;11.00;;
10277;SDS011;5184;51.376;7.148;2024-01-07T08:31:54;17.63;;;11.70;;
10277;SDS011;5184;51.376;7.148;2024-01-07T08:34:21;14.50;;;10.73;;
10277;SDS011;5184;51.376;7.148;2024-01-07T08:36:48;16.87;;;11.83;;
10277;SDS011;5184;51.376;7.148;2024-01-07T08:39:15;19.90;;;13.40;;
10277;SDS011;5184;51.376;7.148;2024-01-07T08:41:42;18.27;;;12.63;;
10277;SDS011;5184;51.376;7.148;2024-01-07T08:44:09;17.13;;;12.57;;
10277;SDS011;5184;51.376;7.148;2024-01-07T08:46:36;19.90;;;13.23;;
10277;SDS011;5184;51.376;7.148;2024-01-07T08:49:03;20.03;;;12.87;;
10277;SDS011;5184;51.376;7.148;2024-01-07T08:51:30;17.30;;;12.07;;
10277;SDS011;5184;51.376;7.148;2024-01-07T08:53:57;17.67;;;12.00;;
10277;SDS011;5184;51.376;7.148;2024-01-07T08:56:25;17.90;;;11.93;;
10277;SDS011;5184;51.376;7.148;2024-01-07T08:58:52;16.40;;;11.67;;
10277;SDS011;5184;51.376;7.148;2024-01-07T09:01:19;18.77;;;13.90;;
10277;SDS011;5184;51.376;7.148;2024-01-07T09:03:47;18.27;;;12.97;;
10277;SDS011;5184;51.376;7.148;2024-01-07T09:06:14;18.27;;;12.67;;
10277;SDS011;5184;51.376;7.148;2024-01-07T09:08:41;17.47;;;12.63;;
10277;SDS011;5184;51.376;7.148;2024-01-07T09:11:08;20.87;;;13.50;;
10277;SDS011;5184;51.376;7.148;2024-01-07T09:13:34;17.20;;;11.67;;
10277;SDS011;5184;51.376;7.148;2024-01-07T09:16:01;19.10;;;12.07;;
10277;SDS011;5184;51.376;7.148;2024-01-07T09:18:28;18.70;;;12.57;;
10277;SDS011;5184;51.376;7.148;2024-01-07T09:20:54;19.77;;;13.37;;
10277;SDS011;5184;51.376;7.148;2024-01-07T09:23:22;18.73;;;13.33;;
10277;SDS011;5184;51.376;7.148;2024-01-07T09:25:49;18.67;;;13.13;;
10277;SDS011;5184;51.376;7.148;2024-01-07T09:28:16;17.47;;;13.17;;
10277;SDS011;5184;51.376;7.148;2024-01-07T09:30:43;18.43;;;11.73;;
10277;SDS011;5184;51.376;7.148;2024-01-07T09:33:10;17.33;;;11.60;;
10277;SDS011;5184;51.376;7.148;2024-01-07T09:35:37;17.10;;;12.07;;
10277;SDS011;5184;51.376;7.148;2024-01-07T09:38:04;15.90;;;11.60;;
10277;SDS011;5184;51.376;7.148;2024-01-07T09:40:30;16.30;;;11.47;;
10277;SDS011;5184;51.376;7.148;2024-01-07T09:42:57;14.57;;;11.07;;
10277;SDS011;5184;51.376;7.148;2024-01-07T09:45:24;18.20;;;11.90;;
10277;SDS011;5184;51.376;7.148;2024-01-07T09:47:51;15.83;;;11.00;;
10277;SDS011;5184;51.376;7.148;2024-01-07T09:50:17;15.40;;;10.67;;
10277;SDS011;5184;51.376;7.148;2024-01-07T09:52:44;15.97;;;11.17;;
10277;SDS011;5184;51.376;7.148;2024-01-07T09:55:12;15.83;;;11.57;;
10277;SDS011;5184;51.376;7.148;2024-01-07T09:57:48;15.80;;;11.00;;
10277;SDS011;5184;51.376;7.148;2024-01-07T10:00:15;16.73;;;10.53;;
10277;SDS011;5184;51.376;7.148;2024-01-07T10:02:42;16.07;;;10.77;;
10277;SDS011;5184;51.376;7.148;2024-01-07T10:05:09;15.13;;;10.17;;
10277;SDS011;5184;51.376;7.148;2024-01-07T10:07:35;13.07;;;10.13;;
10277;SDS011;5184;51.376;7.148;2024-01-07T10:12:38;14.27;;;10.03;;
10277;SDS011;5184;51.376;7.148;2024-01-07T10:15:04;14.93;;;9.40;;
10277;SDS011;5184;51.376;7.148;2024-01-07T10:17:31;14.90;;;10.23;;
10277;SDS011;5184;51.376;7.148;2024-01-07T10:19:59;15.87;;;10.50;;
10277;SDS011;5184;51.376;7.148;2024-01-07T10:22:25;13.83;;;9.93;;
10277;SDS011;5184;51.376;7.148;2024-01-07T10:24:53;12.97;;;9.50;;
10277;SDS011;5184;51.376;7.148;2024-01-07T10:27:22;15.80;;;10.17;;
10277;SDS011;5184;51.376;7.148;2024-01-07T10:29:47;15.50;;;10.20;;
10277;SDS011;5184;51.376;7.148;2024-01-07T10:32:18;11.33;;;8.60;;
10277;SDS011;5184;51.376;7.148;2024-01-07T10:34:43;13.23;;;9.47;;
10277;SDS011;5184;51.376;7.148;2024-01-07T10:37:10;10.37;;;7.57;;
10277;SDS011;5184;51.376;7.148;2024-01-07T10:39:37;12.23;;;9.07;;
10277;SDS011;5184;51.376;7.148;2024-01-07T10:42:04;12.43;;;8.17;;
10277;SDS011;5184;51.376;7.148;2024-01-07T10:44:32;11.13;;;7.97;;
10277;SDS011;5184;51.376;7.148;2024-01-07T10:46:59;11.37;;;7.63;;
10277;SDS011;5184;51.376;7.148;2024-01-07T10:49:27;11.73;;;7.27;;
10277;SDS011;5184;51.376;7.148;2024-01-07T10:52:02;11.00;;;6.60;;
10277;SDS011;5184;51.376;7.148;2024-01-07T10:54:29;9.60;;;7.00;;
10277;SDS011;5184;51.376;7.148;2024-01-07T10:56:58;12.10;;;6.93;;
10277;SDS011;5184;51.376;7.148;2024-01-07T10:59:23;9.40;;;7.20;;
10277;SDS011;5184;51.376;7.148;2024-01-07T11:01:51;9.93;;;6.73;;
10277;SDS011;5184;51.376;7.148;2024-01-07T11:04:23;10.90;;;7.57;;
10277;SDS011;5184;51.376;7.148;2024-01-07T11:07:00;10.77;;;6.70;;
10277;SDS011;5184;51.376;7.148;2024-01-07T11:09:33;8.67;;;5.83;;
10277;SDS011;5184;51.376;7.148;2024-01-07T11:11:58;8.63;;;6.10;;
10277;SDS011;5184;51.376;7.148;2024-01-07T11:16:59;8.07;;;5.57;;
10277;SDS011;5184;51.376;7.148;2024-01-07T11:19:26;10.13;;;6.80;;
10277;SDS011;5184;51.376;7.148;2024-01-07T11:22:04;7.17;;;5.67;;
10277;SDS011;5184;51.376;7.148;2024-01-07T11:27:01;10.47;;;5.67;;
10277;SDS011;5184;51.376;7.148;2024-01-07T11:29:23;8.30;;;5.43;;
10277;SDS011;5184;51.376;7.148;2024-01-07T11:31:50;7.33;;;5.67;;
10277;SDS011;5184;51.376;7.148;2024-01-07T11:37:07;8.70;;;5.40;;
10277;SDS011;5184;51.376;7.148;2024-01-07T11:39:33;7.20;;;5.40;;
10277;SDS011;5184;51.376;7.148;2024-01-07T11:42:02;7.20;;;4.90;;
10277;SDS011;5184;51.376;7.148;2024-01-07T11:44:28;8.80;;;5.87;;
10277;SDS011;5184;51.376;7.148;2024-01-07T11:46:55;6.47;;;5.37;;
10277;SDS011;5184;51.376;7.148;2024-01-07T11:49:23;7.80;;;5.73;;
10277;SDS011;5184;51.376;7.148;2024-01-07T11:51:50;6.90;;;5.50;;
10277;SDS011;5184;51.376;7.148;2024-01-07T11:54:17;7.13;;;4.80;;
10277;SDS011;5184;51.376;7.148;2024-01-07T11:56:44;5.83;;;5.17;;
10277;SDS011;5184;51.376;7.148;2024-01-07T11:59:11;8.47;;;5.27;;
10277;SDS011;5184;51.376;7.148;2024-01-07T12:01:37;7.27;;;4.77;;
10277;SDS011;5184;51.376;7.148;2024-01-07T12:04:05;7.07;;;5.00;;
10277;SDS011;5184;51.376;7.148;2024-01-07T12:06:32;8.13;;;5.10;;
10277;SDS011;5184;51.376;7.148;2024-01-07T12:08:59;6.37;;;4.67;;
10277;SDS011;5184;51.376;7.148;2024-01-07T12:11:27;5.33;;;4.37;;
10277;SDS011;5184;51.376;7.148;2024-01-07T12:13:54;6.50;;;4.67;;
10277;SDS011;5184;51.376;7.148;2024-01-07T12:16:21;6.40;;;4.70;;
10277;SDS011;5184;51.376;7.148;2024-01-07T12:18:48;11.43;;;8.27;;
10277;SDS011;5184;51.376;7.148;2024-01-07T12:21:19;8.83;;;5.63;;
10277;SDS011;5184;51.376;7.148;2024-01-07T12:23:50;5.60;;;4.27;;
10277;SDS011;5184;51.376;7.148;2024-01-07T12:26:17;6.27;;;4.63;;
10277;SDS011;5184;51.376;7.148;2024-01-07T12:28:44;7.10;;;5.03;;
10277;SDS011;5184;51.376;7.148;2024-01-07T12:31:11;5.80;;;4.80;;
10277;SDS011;5184;51.376;7.148;2024-01-07T12:33:38;8.93;;;5.03;;
10277;SDS011;5184;51.376;7.148;2024-01-07T12:36:06;8.70;;;4.67;;
10277;SDS011;5184;51.376;7.148;2024-01-07T12:38:32;6.30;;;4.60;;
10277;SDS011;5184;51.376;7.148;2024-01-07T12:41:00;6.70;;;4.73;;
10277;SDS011;5184;51.376;7.148;2024-01-07T12:43:27;7.03;;;5.00;;
10277;SDS011;5184;51.376;7.148;2024-01-07T12:45:54;6.40;;;4.53;;
10277;SDS011;5184;51.376;7.148;2024-01-07T12:48:22;6.30;;;5.43;;
10277;SDS011;5184;51.376;7.148;2024-01-07T12:50:48;7.70;;;4.63;;
10277;SDS011;5184;51.376;7.148;2024-01-07T12:53:15;6.93;;;4.97;;
10277;SDS011;5184;51.376;7.148;2024-01-07T12:55:41;5.87;;;4.30;;
10277;SDS011;5184;51.376;7.148;2024-01-07T12:58:09;5.50;;;4.07;;
10277;SDS011;5184;51.376;7.148;2024-01-07T13:00:36;6.37;;;4.07;;
10277;SDS011;5184;51.376;7.148;2024-01-07T13:03:03;4.40;;;4.00;;
10277;SDS011;5184;51.376;7.148;2024-01-07T13:05:29;5.40;;;4.20;;
10277;SDS011;5184;51.376;7.148;2024-01-07T13:07:56;7.70;;;4.40;;
10277;SDS011;5184;51.376;7.148;2024-01-07T13:10:23;6.13;;;4.57;;
10277;SDS011;5184;51.376;7.148;2024-01-07T13:12:50;8.33;;;5.43;;
10277;SDS011;5184;51.376;7.148;2024-01-07T13:15:17;7.27;;;4.70;;
10277;SDS011;5184;51.376;7.148;2024-01-07T13:17:43;6.37;;;4.30;;
10277;SDS011;5184;51.376;7.148;2024-01-07T13:20:10;5.30;;;3.93;;
10277;SDS011;5184;51.376;7.148;2024-01-07T13:22:38;5.43;;;3.90;;
10277;SDS011;5184;51.376;7.148;2024-01-07T13:25:05;4.47;;;3.70;;
10277;SDS011;5184;51.376;7.148;2024-01-07T13:27:31;6.73;;;4.23;;
10277;SDS011;5184;51.376;7.148;2024-01-07T13:29:58;4.23;;;3.77;;
10277;SDS011;5184;51.376;7.148;2024-01-07T13:32:24;5.80;;;4.40;;
10277;SDS011;5184;51.376;7.148;2024-01-07T13:34:51;4.53;;;3.63;;
10277;SDS011;5184;51.376;7.148;2024-01-07T13:37:17;5.47;;;4.20;;
10277;SDS011;5184;51.376;7.148;2024-01-07T13:39:45;5.50;;;3.83;;
10277;SDS011;5184;51.376;7.148;2024-01-07T13:42:12;3.90;;;3.43;;
10277;SDS011;5184;51.376;7.148;2024-01-07T13:44:39;4.83;;;3.90;;
10277;SDS011;5184;51.376;7.148;2024-01-07T13:47:05;5.23;;;3.97;;
10277;SDS011;5184;51.376;7.148;2024-01-07T13:49:32;4.70;;;3.60;;
10277;SDS011;5184;51.376;7.148;2024-01-07T13:51:59;5.23;;;3.80;;
10277;SDS011;5184;51.376;7.148;2024-01-07T13:54:27;5.50;;;3.90;;
10277;SDS011;5184;51.376;7.148;2024-01-07T13:56:54;6.60;;;3.43;;
10277;SDS011;5184;51.376;7.148;2024-01-07T13:59:21;5.43;;;3.97;;
10277;SDS011;5184;51.376;7.148;2024-01-07T14:01:47;4.47;;;3.77;;
10277;SDS011;5184;51.376;7.148;2024-01-07T14:04:14;3.87;;;3.30;;
10277;SDS011;5184;51.376;7.148;2024-01-07T14:06:41;6.17;;;4.37;;
10277;SDS011;5184;51.376;7.148;2024-01-07T14:09:09;6.10;;;3.60;;
10277;SDS011;5184;51.376;7.148;2024-01-07T14:11:35;3.90;;;3.10;;
10277;SDS011;5184;51.376;7.148;2024-01-07T14:14:02;4.73;;;2.97;;
10277;SDS011;5184;51.376;7.148;2024-01-07T14:16:28;3.87;;;3.47;;
10277;SDS011;5184;51.376;7.148;2024-01-07T14:18:56;4.20;;;3.60;;
10277;SDS011;5184;51.376;7.148;2024-01-07T14:21:23;7.60;;;5.23;;
10277;SDS011;5184;51.376;7.148;2024-01-07T14:23:51;4.40;;;3.50;;
10277;SDS011;5184;51.376;7.148;2024-01-07T14:26:18;3.30;;;2.87;;
10277;SDS011;5184;51.376;7.148;2024-01-07T14:28:44;4.57;;;3.47;;
10277;SDS011;5184;51.376;7.148;2024-01-07T14:31:11;4.33;;;3.00;;
10277;SDS011;5184;51.376;7.148;2024-01-07T14:33:39;7.93;;;4.40;;
10277;SDS011;5184;51.376;7.148;2024-01-07T14:36:05;4.83;;;3.33;;
10277;SDS011;5184;51.376;7.148;2024-01-07T14:38:32;4.47;;;3.07;;
10277;SDS011;5184;51.376;7.148;2024-01-07T14:40:59;4.50;;;2.83;;
10277;SDS011;5184;51.376;7.148;2024-01-07T14:43:26;4.63;;;2.70;;
10277;SDS011;5184;51.376;7.148;2024-01-07T14:45:53;4.30;;;2.77;;
10277;SDS011;5184;51.376;7.148;2024-01-07T14:48:19;4.07;;;2.90;;
10277;SDS011;5184;51.376;7.148;2024-01-07T14:50:46;3.13;;;2.83;;
10277;SDS011;5184;51.376;7.148;2024-01-07T14:53:13;3.00;;;2.70;;
10277;SDS011;5184;51.376;7.148;2024-01-07T14:55:40;4.00;;;2.43;;